Delhi, CA (95315)

11:32 AM PDT on July 28, 2015 (GMT -0700)
Ballico Weather | | Change Station
CLOSE
Current Station
Personal Weather Station
Location: Ballico, CA
Elevation: 164 ft
Nearby Weather Stations

Elev 164 ft 37.43 °N, 120.72 °W | Updated 3 seconds ago

Clear
Clear
86.6 °F
Feels Like 84 °F
N
1.0
Wind Variable Wind from West
Gusts 7.0 mph

Today
High -- | Low -- °F
--% Chance of Precip.
Yesterday
High -- | Low -- °F
Precip. -- in
6:03 AM 8:14 PM
Waxing Gibbous, 91% visible
Pressure 29.86 in
Visibility 10.0 miles
Clouds Clear
Heat Index 84 °F
Dew Point 52 °F
Humidity 31%
Rainfall 0.00 in
Snow Depth Not available.
UV 8 out of 12
Pollen 4.70 out of 12
Air Quality Not available.
Flu Activity Not available.
METAR KMOD 281753Z 31010KT 10SM CLR 31/07 A2986 RMK AO2 SLP110 T03060072 10306 20172 51000

More Conditions Fewer Conditions

Pressure 29.86 in
Visibility 10.0 miles
Clouds Clear
Heat Index 84 °F
Dew Point 52 °F
Humidity 31%
Rainfall 0.00 in
Snow Depth Not available.
UV 8 out of 12
Pollen 4.70 out of 12
Air Quality Not available.
Flu Activity Not available.
METAR KMOD 281753Z 31010KT 10SM CLR 31/07 A2986 RMK AO2 SLP110 T03060072 10306 20172 51000

More Conditions Fewer Conditions

A strong ridge of high pressure will aid in providing some of the warmest temperatures of the Summer thus far along the West Coast, while dangerously high heat index values up to 110 degrees will be possible from southern Iowa through northern Louisiana. Residents are urged to take precaution while working outside.

10-Day Weather Forecast

×

Almanac

Astronomy

Jul. 28, 2015 Rise Set
Actual Time
Civil Twilight
Nautical Twilight
Astronomical Twilight
Moon
Length of Visible Light
Length of Day
Tomorrow will be .
, % of the Moon is Illuminated

Today's Extremes

State Highs State Lows

Community

WunderPhotos

Upload Photos

1,841,908 photos uploaded!

WunderBlogs® & News

Nearby

Air Quality

  Air Quality AQ Index Pollutant
Not available.

Snow Depth

Station Depth Elevation

Earthquake Activity

City Distance Mag. Time & Date
Minimum magnitude displayed is 2.5.

Coastal Water Temperatures

Place Temperature

Stations

Nearby Weather Stations

Station Location Temp. Windchill Dew Point Humidity Wind Precip. Elev Updated Type